createdAt,value
2018-09-21T00:00:05.426Z,95
2018-09-21T00:05:02.971Z,95
2018-09-21T00:10:03.313Z,95
2018-09-21T00:15:05.827Z,95.1
2018-09-21T00:20:02.914Z,95.1
2018-09-21T00:25:02.847Z,94.9
2018-09-21T00:30:05.363Z,94.7
2018-09-21T00:35:02.836Z,94.7
2018-09-21T00:40:03.270Z,94.9
2018-09-21T00:45:03.312Z,95.1
2018-09-21T00:50:03.249Z,95.2
2018-09-21T00:55:15.886Z,95.5
2018-09-21T01:00:05.390Z,95.8
2018-09-21T01:05:02.822Z,95.7
2018-09-21T01:10:03.138Z,95.8
2018-09-21T01:15:03.153Z,95.7
2018-09-21T01:20:03.160Z,95.9
2018-09-21T01:25:03.162Z,95.8
2018-09-21T01:30:03.207Z,95.9
2018-09-21T01:35:03.250Z,96
2018-09-21T01:40:02.579Z,96.1
2018-09-21T01:45:02.598Z,96.3
2018-09-21T01:50:02.559Z,96.5
2018-09-21T01:55:02.679Z,96.7
2018-09-21T02:00:02.597Z,96.9
2018-09-21T02:05:02.608Z,96.9
2018-09-21T02:10:02.956Z,97.2
2018-09-21T02:15:02.971Z,97.3
2018-09-21T02:20:03.021Z,97.4
2018-09-21T02:25:03.009Z,97.5
2018-09-21T02:30:05.476Z,97.6
2018-09-21T02:35:02.968Z,97.6
2018-09-21T02:40:03.262Z,97.7
2018-09-21T02:45:03.307Z,97.8
2018-09-21T02:50:10.925Z,97.9
2018-09-21T02:55:03.289Z,97.9
2018-09-21T03:00:03.221Z,98.2
2018-09-21T03:05:02.460Z,98.1
2018-09-21T03:10:02.783Z,98.3
2018-09-21T03:15:05.338Z,98.6
2018-09-21T03:20:03.426Z,98.6
2018-09-21T03:25:07.542Z,98.8
2018-09-21T03:30:05.029Z,99.2
2018-09-21T03:35:02.595Z,99.2
2018-09-21T03:40:02.965Z,99
2018-09-21T03:45:02.937Z,99.1
2018-09-21T03:50:02.878Z,99.2
2018-09-21T03:55:02.933Z,99.3
2018-09-21T04:00:02.869Z,99.7
2018-09-21T04:05:07.992Z,99.9
2018-09-21T04:10:03.354Z,99.9
2018-09-21T04:15:03.352Z,99.9
2018-09-21T04:20:03.351Z,99.9
2018-09-21T04:25:04.969Z,99.9
2018-09-21T04:30:02.958Z,99.9
2018-09-21T04:35:02.986Z,99.9
2018-09-21T04:40:03.316Z,99.9
2018-09-21T04:45:03.304Z,99.9
2018-09-21T04:50:03.297Z,99.9
2018-09-21T04:55:03.337Z,99.9
2018-09-21T05:00:03.338Z,99.9
2018-09-21T05:05:05.852Z,99.9
2018-09-21T05:10:05.682Z,99.9
2018-09-21T05:15:03.170Z,99.9
2018-09-21T05:20:03.210Z,99.9
2018-09-21T05:25:08.278Z,99.9
2018-09-21T05:30:03.221Z,99.9
2018-09-21T05:35:03.551Z,99.9
2018-09-21T05:40:05.415Z,99.9
2018-09-21T05:45:05.419Z,99.9
2018-09-21T05:50:03.362Z,99.9
2018-09-21T05:55:05.904Z,99.9
2018-09-21T06:00:02.917Z,99.9
2018-09-21T06:05:02.958Z,99.9
2018-09-21T06:10:03.375Z,99.9
2018-09-21T06:15:03.437Z,99.6
2018-09-21T06:20:12.821Z,98.8
2018-09-21T06:25:02.491Z,97.8
2018-09-21T06:30:02.824Z,97.2
2018-09-21T06:35:02.890Z,96.8
2018-09-21T06:40:05.778Z,95.3
2018-09-21T06:45:03.286Z,95.3
2018-09-21T06:50:03.296Z,95
2018-09-21T06:55:03.277Z,94.2
2018-09-21T07:00:03.287Z,93.6
2018-09-21T07:05:03.322Z,93
2018-09-21T07:10:02.735Z,92.6
2018-09-21T07:15:02.719Z,92.2
2018-09-21T07:20:05.318Z,91.8
2018-09-21T07:25:02.772Z,91.8
2018-09-21T07:30:05.289Z,91.1
2018-09-21T07:35:02.848Z,91.1
2018-09-21T07:40:03.222Z,91
2018-09-21T07:45:03.257Z,90.8
2018-09-21T07:50:03.248Z,90.6
2018-09-21T07:55:03.379Z,90.4
2018-09-21T08:00:05.888Z,89.4
2018-09-21T08:05:06.158Z,88.4
2018-09-21T08:10:05.092Z,88.3
2018-09-21T08:15:02.650Z,88.3
2018-09-21T08:20:02.698Z,87.4
2018-09-21T08:25:07.928Z,86.9
2018-09-21T08:30:02.988Z,86.9
2018-09-21T08:35:15.697Z,84.7
2018-09-21T08:40:03.067Z,84.6
2018-09-21T08:45:05.630Z,81.2
2018-09-21T08:50:02.599Z,81.1
2018-09-21T08:55:05.353Z,78.8
2018-09-21T09:00:03.377Z,78.7
2018-09-21T09:05:02.436Z,77.7
2018-09-21T09:10:02.854Z,76.7
2018-09-21T09:15:07.931Z,75.5
2018-09-21T09:20:02.981Z,75.5
2018-09-21T09:25:05.668Z,69.4
2018-09-21T09:30:08.093Z,66
2018-09-21T09:35:05.240Z,65.2
2018-09-21T09:40:05.187Z,65.3
2018-09-21T09:45:02.674Z,65.2
2018-09-21T09:50:07.822Z,61.4
2018-09-21T09:55:02.912Z,61.4
2018-09-21T10:00:02.983Z,60.4
2018-09-21T10:05:05.699Z,56.7
2018-09-21T10:10:03.222Z,56.6
2018-09-21T10:15:02.462Z,55.2
2018-09-21T10:20:02.739Z,53.9
2018-09-21T10:25:23.069Z,54.8
2018-09-21T10:30:02.771Z,54.9
2018-09-21T10:35:07.868Z,55.1
2018-09-21T10:40:03.470Z,3.8
2018-09-21T10:45:05.418Z,53.8
2018-09-21T10:50:02.484Z,53.7
2018-09-21T10:55:05.126Z,53.3
2018-09-21T11:00:05.693Z,53.1
2018-09-21T11:05:03.304Z,53.1
2018-09-21T11:10:07.749Z,51.5
2018-09-21T11:15:02.869Z,51.5
2018-09-21T11:20:02.997Z,50.9
2018-09-21T11:25:03.036Z,50.2
2018-09-21T11:30:03.075Z,49.6
2018-09-21T11:35:08.307Z,49.5
2018-09-21T11:40:05.343Z,49.3
2018-09-21T11:45:02.956Z,49.3
2018-09-21T11:50:03.053Z,48.6
2018-09-21T11:55:03.139Z,48.8
2018-09-21T12:00:03.162Z,48.9
2018-09-21T12:05:03.512Z,47.8
2018-09-21T12:10:03.027Z,48.1
2018-09-21T12:15:03.168Z,48.8
2018-09-21T12:20:03.296Z,48.8
2018-09-21T12:25:02.412Z,48.7
2018-09-21T12:30:05.933Z,48.6
2018-09-21T12:35:02.653Z,48.6
2018-09-21T12:40:03.252Z,49.3
2018-09-21T12:45:03.370Z,48.5
2018-09-21T12:50:03.405Z,48.6
2018-09-21T12:55:02.712Z,49.1
2018-09-21T13:00:03.028Z,49
2018-09-21T13:05:03.186Z,48.9
2018-09-21T13:10:05.505Z,50
2018-09-21T13:15:08.156Z,48.6
2018-09-21T13:20:03.240Z,48.7
2018-09-21T13:25:05.883Z,49.7
2018-09-21T13:30:02.953Z,49.8
2018-09-21T13:35:03.188Z,50.4
2018-09-21T13:40:05.178Z,50.5
2018-09-21T13:45:02.701Z,50.5
2018-09-21T13:50:07.767Z,51.8
2018-09-21T13:55:05.311Z,51.6
2018-09-21T14:00:03.356Z,51.6
2018-09-21T14:05:02.479Z,52.3
2018-09-21T14:10:02.912Z,52.2
2018-09-21T14:15:03.107Z,52.2
2018-09-21T14:20:03.193Z,52.5
2018-09-21T14:25:03.256Z,51.2
2018-09-21T14:30:03.310Z,51.6
2018-09-21T14:35:04.948Z,90
2018-09-21T14:40:05.914Z,96.2
2018-09-21T14:45:07.471Z,94.4
2018-09-21T14:50:04.979Z,92.3
2018-09-21T14:55:02.539Z,92.3
2018-09-21T15:00:05.069Z,94.6
2018-09-21T15:05:02.492Z,94.5
2018-09-21T15:10:18.075Z,97.5
2018-09-21T15:15:02.975Z,97.5
2018-09-21T15:20:03.197Z,98.4
2018-09-21T15:25:02.446Z,99.9
2018-09-21T15:30:03.448Z,99.9
2018-09-21T15:35:03.380Z,99.9
2018-09-21T15:40:02.810Z,99.9
2018-09-21T15:45:02.873Z,99.9
2018-09-21T15:50:02.896Z,99.9
2018-09-21T15:55:05.427Z,99.9
2018-09-21T16:00:02.450Z,99.9
2018-09-21T16:05:02.558Z,99.9
2018-09-21T16:10:18.136Z,99.9
2018-09-21T16:15:05.631Z,99.9
2018-09-21T16:20:02.662Z,99.9
2018-09-21T16:25:02.851Z,99.9
2018-09-21T16:30:05.361Z,99.9
2018-09-21T16:35:02.722Z,99.9
2018-09-21T16:40:10.801Z,99.9
2018-09-21T16:45:03.375Z,99.9
2018-09-21T16:50:05.967Z,99.9
2018-09-21T16:55:02.538Z,99.9
2018-09-21T17:00:02.495Z,99.9
2018-09-21T17:05:02.568Z,99.9
2018-09-21T17:10:02.892Z,99.9
2018-09-21T17:15:05.401Z,99.9
2018-09-21T17:20:03.452Z,99.9
2018-09-21T17:25:02.415Z,99.9
2018-09-21T17:30:05.878Z,99.9
2018-09-21T17:35:03.321Z,99.9
2018-09-21T17:40:05.214Z,99.9
2018-09-21T17:45:02.710Z,99.9
2018-09-21T17:50:02.704Z,99.9
2018-09-21T17:55:02.709Z,99.9
2018-09-21T18:00:02.592Z,99.9
2018-09-21T18:05:02.705Z,99.9
2018-09-21T18:10:05.610Z,99.9
2018-09-21T18:15:02.999Z,99.9
2018-09-21T18:20:03.137Z,99.9
2018-09-21T18:25:03.178Z,99.9
2018-09-21T18:30:03.204Z,99.9
2018-09-21T18:35:03.299Z,99.9
2018-09-21T18:40:05.146Z,99.9
2018-09-21T18:45:02.684Z,99.9
2018-09-21T18:50:02.629Z,99.9
2018-09-21T18:55:05.337Z,99.9
2018-09-21T19:00:03.350Z,99.9
2018-09-21T19:05:03.264Z,99.9
2018-09-21T19:10:10.182Z,99.9
2018-09-21T19:15:02.610Z,99.9
2018-09-21T19:20:02.629Z,99.9
2018-09-21T19:25:07.656Z,99.9
2018-09-21T19:30:02.578Z,99.9
2018-09-21T19:35:02.484Z,99.9
2018-09-21T19:40:02.847Z,99.9
2018-09-21T19:45:08.363Z,99.9
2018-09-21T19:50:02.474Z,99.9
2018-09-21T19:55:02.474Z,99.9
2018-09-21T20:00:03.428Z,99.9
2018-09-21T20:05:03.344Z,99.9
2018-09-21T20:10:02.697Z,99.9
2018-09-21T20:15:02.679Z,99.9
2018-09-21T20:20:02.768Z,99.9
2018-09-21T20:25:02.734Z,99.9
2018-09-21T20:30:02.669Z,99.9
2018-09-21T20:35:02.604Z,99.9
2018-09-21T20:40:02.931Z,99.9
2018-09-21T20:45:02.941Z,99.9
2018-09-21T20:50:07.903Z,99.9
2018-09-21T20:55:02.832Z,99.9
2018-09-21T21:00:02.776Z,99.9
2018-09-21T21:05:02.698Z,99.9
2018-09-21T21:10:05.512Z,99.9
2018-09-21T21:15:02.935Z,99.9
2018-09-21T21:20:05.458Z,99.9
2018-09-21T21:25:03.020Z,99.9
2018-09-21T21:30:02.969Z,99.9
2018-09-21T21:35:05.479Z,99.9
2018-09-21T21:40:10.386Z,99.9
2018-09-21T21:45:02.714Z,99.9
2018-09-21T21:50:02.646Z,99.9
2018-09-21T21:55:05.158Z,99.9
2018-09-21T22:00:02.569Z,99.9
2018-09-21T22:05:12.674Z,99.9
2018-09-21T22:10:03.028Z,99.9
2018-09-21T22:15:05.470Z,99.9
2018-09-21T22:20:03.438Z,99.9
2018-09-21T22:25:02.478Z,99.9
2018-09-21T22:30:03.393Z,99.9
2018-09-21T22:35:05.908Z,99.9
2018-09-21T22:40:03.191Z,99.9
2018-09-21T22:45:03.238Z,99.9
2018-09-21T22:50:03.175Z,99.9
2018-09-21T22:55:03.122Z,99.9
2018-09-21T23:00:03.038Z,99.9
2018-09-21T23:05:02.984Z,99.9
2018-09-21T23:10:03.295Z,99.9
2018-09-21T23:15:03.241Z,99.9
2018-09-21T23:20:10.826Z,99.9
2018-09-21T23:25:03.113Z,99.9
2018-09-21T23:30:03.069Z,99.9
2018-09-21T23:35:03.044Z,99.9
2018-09-21T23:40:03.341Z,99.9
2018-09-21T23:45:03.360Z,99.9
2018-09-21T23:50:03.277Z,99.9
2018-09-21T23:55:05.717Z,99.9
